Time;durP1;ratioP1;P1;durP2;ratioP2;P2;SDS_P1;SDS_P2;PMS_P1;PMS_P2;Temp;Humidity;BMP_temperature;BMP_pressure;BME280_temperature;BME280_humidity;BME280_pressure;Samples;Min_cycle;Max_cycle;Signal;HPM_P1;HPM_P2
2023/12/12 00:00:44;;;;;;;16.03;10.67;;;2.50;1.00;;;;;;9868574;30;20210;-79
2023/12/12 00:06:07;;;;;;;12.90;8.63;;;2.50;1.00;;;;;;9891343;30;20235;-78
2023/12/12 00:11:28;;;;;;;14.83;10.03;;;2.60;1.00;;;;;;9880175;30;20246;-78
2023/12/12 00:16:51;;;;;;;23.90;14.43;;;2.60;1.00;;;;;;9881038;30;20242;-79
2023/12/12 00:22:12;;;;;;;18.30;12.30;;;2.70;1.00;;;;;;9896634;30;20255;-78
2023/12/12 00:27:33;;;;;;;17.33;10.70;;;2.60;1.00;;;;;;9915375;30;20212;-79
2023/12/12 00:32:55;;;;;;;12.60;7.77;;;2.60;1.00;;;;;;9870002;29;20212;-79
2023/12/12 00:38:16;;;;;;;13.67;9.37;;;2.60;1.00;;;;;;9866299;30;20258;-79
2023/12/12 00:43:40;;;;;;;14.10;7.67;;;2.70;1.00;;;;;;9853957;30;20208;-80
2023/12/12 00:49:01;;;;;;;12.80;7.87;;;2.70;1.00;;;;;;9854627;30;20238;-79
2023/12/12 00:54:23;;;;;;;18.80;11.27;;;2.60;1.00;;;;;;9859223;30;20254;-78
2023/12/12 00:59:44;;;;;;;18.77;12.30;;;2.60;1.00;;;;;;9869633;30;20213;-79
2023/12/12 01:05:06;;;;;;;23.40;13.13;;;2.70;1.00;;;;;;9884945;30;20207;-78
2023/12/12 01:10:27;;;;;;;20.53;12.50;;;2.70;1.00;;;;;;9898347;30;20253;-78
2023/12/12 01:15:49;;;;;;;22.57;11.10;;;2.70;1.00;;;;;;9898206;30;20235;-79
2023/12/12 01:21:10;;;;;;;19.53;11.97;;;2.70;1.00;;;;;;9910957;30;20493;-78
2023/12/12 01:26:31;;;;;;;20.10;11.03;;;2.60;1.00;;;;;;9936526;29;20212;-79
2023/12/12 01:31:52;;;;;;;25.03;11.33;;;2.60;1.00;;;;;;9888018;29;20261;-79
2023/12/12 01:37:14;;;;;;;20.17;11.63;;;2.60;1.00;;;;;;9860591;30;20238;-78
2023/12/12 01:42:35;;;;;;;23.07;11.53;;;2.70;1.00;;;;;;9861950;30;20232;-78
2023/12/12 01:47:56;;;;;;;21.23;10.63;;;2.70;1.00;;;;;;9874103;30;20208;-79
2023/12/12 01:53:21;;;;;;;17.77;10.13;;;2.70;1.00;;;;;;9859490;30;20278;-79
2023/12/12 01:58:46;;;;;;;17.20;10.17;;;2.70;1.00;;;;;;9862352;30;20229;-79
2023/12/12 02:04:07;;;;;;;15.40;9.50;;;2.70;1.00;;;;;;9895181;30;20450;-80
2023/12/12 02:09:29;;;;;;;17.90;9.90;;;2.80;1.00;;;;;;9895303;30;20579;-79
2023/12/12 02:14:50;;;;;;;18.07;10.43;;;2.80;1.00;;;;;;9895334;30;20204;-79
2023/12/12 02:20:12;;;;;;;20.17;10.60;;;2.90;29.10;;;;;;9901273;30;20226;-79
2023/12/12 02:25:33;;;;;;;15.17;8.67;;;2.90;1.00;;;;;;9919288;30;20210;-78
2023/12/12 02:30:59;;;;;;;15.50;8.90;;;2.90;1.00;;;;;;9897104;29;20505;-79
2023/12/12 02:36:21;;;;;;;16.10;8.33;;;2.80;1.00;;;;;;9845325;30;20269;-79
2023/12/12 02:41:42;;;;;;;17.63;10.30;;;2.80;1.00;;;;;;9857686;30;20215;-79
2023/12/12 02:47:04;;;;;;;18.13;9.37;;;2.90;1.00;;;;;;9858490;30;20203;-79
2023/12/12 02:52:25;;;;;;;20.37;10.87;;;2.80;1.00;;;;;;9857448;30;20215;-79
2023/12/12 02:57:46;;;;;;;21.87;11.27;;;2.80;1.00;;;;;;9865499;30;20235;-79
2023/12/12 03:03:08;;;;;;;22.40;11.63;;;2.90;1.00;;;;;;9894534;30;20515;-79
2023/12/12 03:08:29;;;;;;;16.37;9.97;;;2.90;1.00;;;;;;9894454;30;20202;-79
2023/12/12 03:13:50;;;;;;;18.07;9.70;;;2.90;1.00;;;;;;9903037;30;20216;-78
2023/12/12 03:19:11;;;;;;;19.23;10.93;;;2.90;1.00;;;;;;9892977;30;20314;-79
2023/12/12 03:24:32;;;;;;;17.70;9.63;;;2.90;1.00;;;;;;9857149;30;20553;-78
2023/12/12 03:29:53;;;;;;;17.70;9.60;;;2.90;1.00;;;;;;9859559;30;20222;-80
2023/12/12 03:35:14;;;;;;;14.93;8.90;;;3.00;1.00;;;;;;9893724;30;20423;-79
2023/12/12 03:40:36;;;;;;;17.43;9.03;;;3.00;1.00;;;;;;9892537;30;20199;-78
2023/12/12 03:45:57;;;;;;;15.73;8.57;;;3.00;1.00;;;;;;9892231;30;20200;-78
2023/12/12 03:51:18;;;;;;;14.00;7.97;;;3.10;1.00;;;;;;9893132;30;20210;-77
2023/12/12 03:56:39;;;;;;;13.00;7.53;;;3.10;1.00;;;;;;9892134;30;20284;-78
2023/12/12 04:02:01;;;;;;;13.50;6.67;;;3.10;1.00;;;;;;9891310;30;20545;-78
2023/12/12 04:07:22;;;;;;;14.03;7.77;;;3.20;1.00;;;;;;9891656;30;20567;-78
2023/12/12 04:12:43;;;;;;;12.90;7.93;;;3.20;1.00;;;;;;9891727;30;20262;-79
2023/12/12 04:18:05;;;;;;;11.53;6.70;;;3.20;1.00;;;;;;9891963;30;20296;-79
2023/12/12 04:23:26;;;;;;;10.27;6.87;;;3.20;1.00;;;;;;9923437;29;20210;-78
2023/12/12 04:28:47;;;;;;;11.97;6.73;;;3.20;1.00;;;;;;9896728;29;20222;-78
2023/12/12 04:34:09;;;;;;;11.03;6.90;;;3.30;24.30;;;;;;9855379;30;20230;-79
2023/12/12 04:39:31;;;;;;;9.40;6.50;;;3.30;1.00;;;;;;9854840;30;20257;-78
2023/12/12 04:44:52;;;;;;;8.43;5.70;;;3.30;1.00;;;;;;9853937;30;20282;-78
2023/12/12 04:50:13;;;;;;;10.73;6.33;;;3.30;6.30;;;;;;9855850;30;20208;-79
2023/12/12 04:55:35;;;;;;;7.87;4.83;;;3.30;44.20;;;;;;9853301;30;20226;-79
2023/12/12 05:00:56;;;;;;;7.23;4.70;;;3.30;32.30;;;;;;9885982;30;20210;-79
2023/12/12 05:06:17;;;;;;;6.67;5.00;;;3.30;20.80;;;;;;9890547;30;20355;-79
2023/12/12 05:11:38;;;;;;;7.03;4.27;;;3.30;74.70;;;;;;9866412;30;20257;-79
2023/12/12 05:17:00;;;;;;;8.43;5.47;;;3.30;86.20;;;;;;9890079;30;20556;-80
2023/12/12 05:22:24;;;;;;;9.13;5.77;;;3.30;67.00;;;;;;9913318;30;20194;-78
2023/12/12 05:27:45;;;;;;;8.53;5.57;;;3.30;60.70;;;;;;9894885;30;20301;-79
2023/12/12 05:33:07;;;;;;;8.20;5.37;;;3.30;99.60;;;;;;9854028;30;20544;-78
2023/12/12 05:38:28;;;;;;;10.57;6.03;;;3.30;99.90;;;;;;9852919;30;20238;-79
2023/12/12 05:43:50;;;;;;;11.03;6.87;;;3.30;99.90;;;;;;9859895;30;20279;-79
2023/12/12 05:49:11;;;;;;;10.83;5.93;;;3.30;88.90;;;;;;9860567;30;20203;-78
2023/12/12 05:54:32;;;;;;;10.73;5.87;;;3.30;99.90;;;;;;9846877;30;20215;-78
2023/12/12 05:59:53;;;;;;;9.43;5.90;;;3.40;27.00;;;;;;9897520;30;20246;-79
2023/12/12 06:05:15;;;;;;;11.53;6.03;;;3.40;3.90;;;;;;9896049;30;20199;-78
2023/12/12 06:10:37;;;;;;;8.47;5.23;;;3.30;77.20;;;;;;9884409;30;20251;-79
2023/12/12 06:15:59;;;;;;;9.93;5.93;;;3.40;90.60;;;;;;9895241;30;20239;-78
2023/12/12 06:21:21;;;;;;;8.97;5.73;;;3.40;74.10;;;;;;9910204;30;20395;-80
2023/12/12 06:26:42;;;;;;;10.90;6.60;;;3.40;82.30;;;;;;9924617;29;20199;-80
2023/12/12 06:32:04;;;;;;;14.03;5.67;;;3.40;58.20;;;;;;9845484;30;20212;-78
2023/12/12 06:37:25;;;;;;;12.23;6.87;;;3.40;93.00;;;;;;9857371;30;20261;-79
2023/12/12 06:42:47;;;;;;;11.93;6.07;;;3.40;99.90;;;;;;9857771;30;20195;-80
2023/12/12 06:48:10;;;;;;;14.83;6.60;;;3.40;99.90;;;;;;9858471;30;20293;-79
2023/12/12 06:53:32;;;;;;;9.97;5.60;;;3.30;99.90;;;;;;9856901;30;20218;-78
2023/12/12 06:58:53;;;;;;;9.93;5.97;;;3.30;99.90;;;;;;9877002;30;20296;-78
2023/12/12 07:04:14;;;;;;;12.67;6.67;;;3.30;99.90;;;;;;9894935;30;20198;-79
2023/12/12 07:09:36;;;;;;;12.30;5.83;;;3.40;99.90;;;;;;9888849;30;20478;-79
2023/12/12 07:14:57;;;;;;;9.70;5.67;;;3.40;99.90;;;;;;9890889;30;20382;-79
2023/12/12 07:20:19;;;;;;;14.80;8.07;;;3.40;99.90;;;;;;9900279;30;20236;-79
2023/12/12 07:25:40;;;;;;;14.93;9.80;;;3.30;99.90;;;;;;9917461;30;20207;-79
2023/12/12 07:31:04;;;;;;;13.40;8.87;;;3.40;99.90;;;;;;9855854;30;20221;-78
2023/12/12 07:36:26;;;;;;;14.80;8.93;;;3.40;99.90;;;;;;9855628;30;20268;-78
2023/12/12 07:41:47;;;;;;;13.23;8.93;;;3.40;99.90;;;;;;9860002;30;20203;-79
2023/12/12 07:47:09;;;;;;;18.30;11.97;;;3.50;99.90;;;;;;9842997;30;20430;-80
2023/12/12 07:52:31;;;;;;;27.30;17.53;;;3.50;99.90;;;;;;9842336;30;20241;-78
2023/12/12 07:57:53;;;;;;;13.33;9.47;;;3.50;99.90;;;;;;9859733;30;20270;-79
2023/12/12 08:03:15;;;;;;;11.50;7.57;;;3.50;99.90;;;;;;9878497;30;20202;-78
2023/12/12 08:08:36;;;;;;;14.83;9.77;;;3.50;99.90;;;;;;9891159;30;20233;-78
2023/12/12 08:13:59;;;;;;;13.23;9.07;;;3.50;99.90;;;;;;9856519;30;20261;-79
2023/12/12 08:19:21;;;;;;;17.30;13.23;;;3.50;99.90;;;;;;9864917;30;20590;-80
2023/12/12 08:24:43;;;;;;;20.97;15.07;;;3.60;99.90;;;;;;9857328;30;20397;-79
2023/12/12 08:30:05;;;;;;;46.67;27.00;;;3.60;99.90;;;;;;9882103;30;20229;-79
2023/12/12 08:35:27;;;;;;;54.80;25.80;;;3.60;99.90;;;;;;9872746;30;20211;-79
2023/12/12 08:40:48;;;;;;;39.30;21.97;;;3.60;99.90;;;;;;9884984;30;20222;-81
2023/12/12 08:46:10;;;;;;;36.97;22.97;;;3.70;99.90;;;;;;9869788;30;20207;-78
2023/12/12 08:51:34;;;;;;;33.63;19.93;;;3.70;99.90;;;;;;9848806;30;20211;-77
2023/12/12 08:56:55;;;;;;;24.87;13.77;;;3.70;99.90;;;;;;9849836;30;20236;-79
2023/12/12 09:02:17;;;;;;;36.00;19.93;;;3.70;99.90;;;;;;9862355;30;20203;-79
2023/12/12 09:07:40;;;;;;;41.57;23.90;;;3.70;99.90;;;;;;9885537;30;20234;-79
2023/12/12 09:13:01;;;;;;;42.20;25.33;;;3.80;99.90;;;;;;9873739;30;20322;-80
2023/12/12 09:18:22;;;;;;;35.53;20.87;;;3.80;99.90;;;;;;9879700;30;20579;-79
2023/12/12 09:23:44;;;;;;;32.00;18.40;;;3.80;99.90;;;;;;9911816;30;20201;-79
2023/12/12 09:29:06;;;;;;;19.93;12.67;;;3.80;99.90;;;;;;9901145;29;20212;-81
2023/12/12 09:34:27;;;;;;;23.60;11.60;;;3.80;99.90;;;;;;9879342;30;20466;-82
2023/12/12 09:39:51;;;;;;;17.77;10.93;;;3.80;99.90;;;;;;9891292;30;20418;-81
2023/12/12 09:45:15;;;;;;;17.47;9.77;;;3.80;99.90;;;;;;9856189;30;20216;-81
2023/12/12 09:50:37;;;;;;;21.20;12.30;;;3.80;99.90;;;;;;9892060;30;20215;-80
2023/12/12 09:56:04;;;;;;;22.63;10.57;;;3.80;93.40;;;;;;9866808;30;20273;-82
2023/12/12 10:01:26;;;;;;;14.17;8.83;;;3.80;70.80;;;;;;9878056;30;20514;-82
2023/12/12 10:06:57;;;;;;;13.53;8.53;;;3.80;98.70;;;;;;9866122;30;20220;-81
2023/12/12 10:12:18;;;;;;;14.47;8.37;;;3.80;99.90;;;;;;9882121;30;20407;-80
2023/12/12 10:17:40;;;;;;;12.73;7.13;;;3.80;99.90;;;;;;9862995;30;20235;-82
2023/12/12 10:23:03;;;;;;;11.10;7.67;;;3.80;93.70;;;;;;9904961;30;20210;-82
2023/12/12 10:28:24;;;;;;;10.83;7.07;;;3.90;82.80;;;;;;9890061;30;20258;-83
2023/12/12 10:33:46;;;;;;;8.43;5.60;;;3.90;55.70;;;;;;9878167;30;20214;-81
2023/12/12 10:39:15;;;;;;;15.93;7.43;;;3.90;75.80;;;;;;9846482;30;20250;-84
2023/12/12 10:44:38;;;;;;;8.37;5.80;;;4.00;29.70;;;;;;9852626;30;20212;-82
2023/12/12 10:50:02;;;;;;;12.60;7.53;;;3.90;5.10;;;;;;9876168;30;20208;-81
2023/12/12 10:55:25;;;;;;;8.57;5.73;;;4.00;10.30;;;;;;9877018;30;20290;-80
2023/12/12 11:00:48;;;;;;;10.17;6.37;;;4.00;1.00;;;;;;9864438;30;20266;-82
2023/12/12 11:06:10;;;;;;;13.17;8.30;;;4.00;1.00;;;;;;9888577;30;20293;-82
2023/12/12 11:11:31;;;;;;;17.33;9.90;;;4.00;5.10;;;;;;9886991;30;20264;-81
2023/12/12 11:16:59;;;;;;;14.83;9.23;;;4.00;11.20;;;;;;9890847;30;20226;-82
2023/12/12 11:22:43;;;;;;;11.03;6.97;;;4.00;1.00;;;;;;9898117;30;20434;-83
2023/12/12 11:28:04;;;;;;;14.73;7.60;;;4.00;1.00;;;;;;9874641;30;20211;-83
2023/12/12 11:33:26;;;;;;;11.87;7.60;;;4.00;1.00;;;;;;9875896;30;20453;-82
2023/12/12 11:38:49;;;;;;;11.80;7.93;;;4.00;1.00;;;;;;9846361;30;20246;-81
2023/12/12 11:44:10;;;;;;;9.47;6.47;;;4.00;1.00;;;;;;9851427;30;20207;-82
2023/12/12 11:49:32;;;;;;;17.37;5.97;;;4.00;1.00;;;;;;9851009;30;20506;-81
2023/12/12 11:54:53;;;;;;;15.90;6.50;;;4.00;1.00;;;;;;9850942;30;20218;-80
2023/12/12 12:00:17;;;;;;;32.50;10.57;;;4.00;1.00;;;;;;9837421;30;20242;-85
2023/12/12 12:05:38;;;;;;;22.87;10.10;;;4.00;1.00;;;;;;9850070;30;20207;-80
2023/12/12 12:11:00;;;;;;;22.63;13.03;;;3.90;1.00;;;;;;9882177;30;20503;-81
2023/12/12 12:16:22;;;;;;;23.23;10.70;;;4.00;1.00;;;;;;9873625;30;20222;-82
2023/12/12 12:21:43;;;;;;;27.97;11.53;;;4.00;1.00;;;;;;9904712;30;20262;-82
2023/12/12 12:27:05;;;;;;;16.13;9.63;;;4.00;1.00;;;;;;9910272;30;20436;-81
2023/12/12 12:32:26;;;;;;;18.67;11.90;;;4.00;1.00;;;;;;9924090;30;20199;-81
2023/12/12 12:37:48;;;;;;;19.77;11.00;;;3.90;1.00;;;;;;9865267;30;20443;-81
2023/12/12 12:43:14;;;;;;;19.07;11.53;;;3.90;1.00;;;;;;9823897;30;20218;-81
2023/12/12 12:48:35;;;;;;;21.23;11.57;;;3.90;1.00;;;;;;9849100;30;20246;-83
2023/12/12 12:53:56;;;;;;;23.00;12.80;;;3.90;1.00;;;;;;9836385;30;20264;-82
2023/12/12 12:59:18;;;;;;;20.20;12.07;;;3.90;1.00;;;;;;9836049;30;20262;-81
2023/12/12 13:04:43;;;;;;;18.87;11.10;;;3.90;1.00;;;;;;9850954;30;20222;-82
2023/12/12 13:10:09;;;;;;;18.67;11.67;;;3.90;1.00;;;;;;9867433;30;20244;-81
2023/12/12 13:15:31;;;;;;;27.00;16.10;;;3.90;1.00;;;;;;9854111;30;20233;-81
2023/12/12 13:20:52;;;;;;;21.67;13.80;;;3.90;1.00;;;;;;9883714;30;20423;-81
2023/12/12 13:26:13;;;;;;;15.47;9.60;;;4.00;1.00;;;;;;9909430;30;20218;-81
2023/12/12 13:31:35;;;;;;;12.50;8.87;;;3.90;1.00;;;;;;9910470;30;20240;-81
2023/12/12 13:36:56;;;;;;;14.73;8.70;;;3.90;1.00;;;;;;9898179;30;20401;-80
2023/12/12 13:42:19;;;;;;;19.67;12.83;;;3.80;1.00;;;;;;9871964;30;20225;-79
2023/12/12 13:47:40;;;;;;;20.00;12.47;;;3.80;1.00;;;;;;9872805;30;20259;-80
2023/12/12 13:53:01;;;;;;;29.30;15.30;;;3.70;1.00;;;;;;9872293;30;20206;-79
2023/12/12 13:58:23;;;;;;;38.97;24.10;;;3.70;1.00;;;;;;9884389;30;20539;-79
2023/12/12 14:03:44;;;;;;;50.90;33.17;;;3.60;1.00;;;;;;9877201;30;20422;-77
2023/12/12 14:09:06;;;;;;;30.53;19.53;;;3.50;1.00;;;;;;9889696;30;20443;-79
2023/12/12 14:14:31;;;;;;;16.70;10.97;;;3.50;1.00;;;;;;9890471;30;20238;-78
2023/12/12 14:19:52;;;;;;;18.60;9.87;;;3.40;1.00;;;;;;9897371;30;20249;-79
2023/12/12 14:25:14;;;;;;;20.57;10.43;;;3.40;1.00;;;;;;9916670;29;20517;-79
2023/12/12 14:30:35;;;;;;;16.60;11.70;;;3.50;1.00;;;;;;9905645;30;20406;-80
2023/12/12 14:35:56;;;;;;;19.90;12.03;;;3.50;1.00;;;;;;9913996;30;20207;-81
2023/12/12 14:41:17;;;;;;;15.17;11.30;;;3.40;1.00;;;;;;9897605;29;20243;-79
2023/12/12 14:46:39;;;;;;;17.97;11.73;;;3.40;1.00;;;;;;9853025;30;20222;-79
2023/12/12 14:52:00;;;;;;;22.27;12.30;;;3.40;1.00;;;;;;9828803;30;20207;-78
2023/12/12 14:57:21;;;;;;;23.17;15.00;;;3.40;1.00;;;;;;9899550;29;20219;-78
2023/12/12 15:02:46;;;;;;;27.23;16.90;;;3.40;1.00;;;;;;9926266;30;20391;-88
2023/12/12 15:08:07;;;;;;;26.57;16.67;;;3.30;1.00;;;;;;9926454;30;20395;-82
2023/12/12 15:13:29;;;;;;;24.80;15.80;;;3.20;1.00;;;;;;9873516;30;20229;-81
2023/12/12 15:18:50;;;;;;;27.10;17.70;;;3.20;1.00;;;;;;9875341;30;20264;-80
2023/12/12 15:24:11;;;;;;;45.73;22.63;;;3.20;1.00;;;;;;9889001;30;20198;-80
2023/12/12 15:29:32;;;;;;;45.60;25.63;;;3.20;1.00;;;;;;9883859;30;20223;-79
2023/12/12 15:34:55;;;;;;;44.50;24.77;;;3.10;1.00;;;;;;9924531;29;20531;-78
2023/12/12 15:40:17;;;;;;;43.37;23.73;;;3.20;1.00;;;;;;9901654;29;20258;-80
2023/12/12 15:45:40;;;;;;;37.57;20.33;;;3.20;1.00;;;;;;9857761;30;20211;-78
2023/12/12 15:51:01;;;;;;;32.77;19.60;;;3.20;1.00;;;;;;9873451;30;20228;-84
2023/12/12 15:56:25;;;;;;;31.57;19.37;;;3.20;1.00;;;;;;9874355;30;20293;-80
2023/12/12 16:01:46;;;;;;;43.43;22.70;;;3.20;1.00;;;;;;9873966;30;20240;-78
2023/12/12 16:07:08;;;;;;;45.63;22.23;;;3.20;1.00;;;;;;9874675;30;20217;-80
2023/12/12 16:12:29;;;;;;;34.17;19.07;;;3.30;1.00;;;;;;9853994;30;20306;-78
2023/12/12 16:17:51;;;;;;;32.00;17.57;;;3.20;1.00;;;;;;9875599;30;20310;-79
2023/12/12 16:23:13;;;;;;;29.47;16.63;;;3.20;1.00;;;;;;9890140;30;20527;-78
2023/12/12 16:28:34;;;;;;;29.97;17.53;;;3.20;1.00;;;;;;9892319;30;20525;-79
2023/12/12 16:33:56;;;;;;;61.70;33.17;;;3.30;1.00;;;;;;9928947;29;20304;-78
2023/12/12 16:39:17;;;;;;;76.37;39.27;;;3.30;1.00;;;;;;9928695;29;20230;-78
2023/12/12 16:44:38;;;;;;;72.03;37.90;;;3.30;1.00;;;;;;9857563;30;20213;-78
2023/12/12 16:50:00;;;;;;;67.53;36.67;;;3.30;1.00;;;;;;9854652;30;20207;-78
2023/12/12 16:55:20;;;;;;;65.30;34.77;;;3.20;99.90;;;;;;9861982;30;20213;-79
2023/12/12 17:00:42;;;;;;;52.80;30.50;;;3.30;1.00;;;;;;9891069;30;20280;-77
2023/12/12 17:06:03;;;;;;;42.60;25.03;;;3.30;1.00;;;;;;9889372;30;20520;-78
2023/12/12 17:11:25;;;;;;;47.27;24.23;;;3.30;1.00;;;;;;9878907;30;20247;-78
2023/12/12 17:16:48;;;;;;;39.20;21.23;;;3.30;99.90;;;;;;9890736;30;20203;-78
2023/12/12 17:22:10;;;;;;;36.53;21.30;;;3.20;99.90;;;;;;9890868;30;20572;-79
2023/12/12 17:27:31;;;;;;;33.90;19.40;;;3.20;1.00;;;;;;9890783;30;20484;-77
2023/12/12 17:32:52;;;;;;;57.37;28.37;;;3.20;1.00;;;;;;9907457;30;20397;-79
2023/12/12 17:38:13;;;;;;;76.80;34.13;;;3.20;1.00;;;;;;9893662;30;20537;-77
2023/12/12 17:43:34;;;;;;;82.50;36.93;;;3.20;99.90;;;;;;9896289;30;20409;-77
2023/12/12 17:48:57;;;;;;;72.83;36.37;;;3.20;99.90;;;;;;9897573;30;20276;-79
2023/12/12 17:54:19;;;;;;;64.30;30.10;;;3.20;99.90;;;;;;9897368;30;20448;-79
2023/12/12 17:59:41;;;;;;;49.57;24.63;;;3.20;99.90;;;;;;9895627;30;20238;-77
2023/12/12 18:05:03;;;;;;;37.20;19.27;;;3.20;99.90;;;;;;9894823;30;20432;-77
2023/12/12 18:10:25;;;;;;;31.27;18.13;;;3.20;99.90;;;;;;9895774;30;20255;-77
2023/12/12 18:15:46;;;;;;;33.33;18.63;;;3.10;99.90;;;;;;9896259;30;20195;-77
2023/12/12 18:21:07;;;;;;;26.63;17.43;;;3.10;1.00;;;;;;9896585;30;20294;-77
2023/12/12 18:26:28;;;;;;;33.07;17.10;;;3.00;99.90;;;;;;9882512;30;20286;-78
2023/12/12 18:31:50;;;;;;;27.67;17.33;;;3.00;99.90;;;;;;9916423;30;20218;-77
2023/12/12 18:37:11;;;;;;;28.80;18.43;;;2.90;99.90;;;;;;9858164;30;20207;-77
2023/12/12 18:42:36;;;;;;;30.80;17.30;;;3.00;1.00;;;;;;9858840;30;20210;-78
2023/12/12 18:47:58;;;;;;;27.07;16.13;;;3.00;99.90;;;;;;9857245;30;20215;-78
2023/12/12 18:53:19;;;;;;;28.53;16.80;;;3.00;99.90;;;;;;9857467;30;20237;-78
2023/12/12 18:58:44;;;;;;;32.60;19.27;;;2.90;1.00;;;;;;9858078;30;20278;-78
2023/12/12 19:04:05;;;;;;;37.40;20.03;;;2.90;99.90;;;;;;9879083;30;20386;-79
2023/12/12 19:09:28;;;;;;;37.70;21.20;;;2.90;99.90;;;;;;9894563;30;20234;-79
2023/12/12 19:14:49;;;;;;;44.07;24.70;;;2.90;99.90;;;;;;9893245;30;20212;-78
2023/12/12 19:20:11;;;;;;;42.70;25.07;;;2.90;99.90;;;;;;9893338;30;20413;-78
2023/12/12 19:25:35;;;;;;;45.00;26.00;;;2.80;99.90;;;;;;9905655;30;20390;-78
2023/12/12 19:30:57;;;;;;;45.10;26.47;;;2.80;99.90;;;;;;9911278;30;20289;-79
2023/12/12 19:36:18;;;;;;;49.20;27.07;;;2.80;99.90;;;;;;9856026;30;20220;-78
2023/12/12 19:41:40;;;;;;;46.90;30.87;;;2.90;1.00;;;;;;9858742;30;20235;-78
2023/12/12 19:47:01;;;;;;;49.83;29.70;;;2.80;99.90;;;;;;9855839;30;20199;-78
2023/12/12 19:52:23;;;;;;;45.17;29.40;;;2.80;1.00;;;;;;9856535;30;20360;-78
2023/12/12 19:57:44;;;;;;;42.53;26.60;;;2.80;1.00;;;;;;9854680;30;20293;-78
2023/12/12 20:03:05;;;;;;;84.13;37.43;;;2.70;99.90;;;;;;9868007;30;20222;-78
2023/12/12 20:08:26;;;;;;;94.20;41.27;;;2.70;1.00;;;;;;9856003;30;20199;-78
2023/12/12 20:13:48;;;;;;;106.27;43.60;;;2.70;1.00;;;;;;9889921;30;20240;-81
2023/12/12 20:19:09;;;;;;;77.83;36.90;;;2.80;1.00;;;;;;9891191;30;20234;-78
2023/12/12 20:24:30;;;;;;;67.93;31.93;;;2.70;1.00;;;;;;9903757;30;20219;-78
2023/12/12 20:29:51;;;;;;;55.50;32.20;;;2.70;99.90;;;;;;9902398;30;20202;-78
2023/12/12 20:35:12;;;;;;;61.17;34.23;;;2.70;99.90;;;;;;9883688;29;20490;-78
2023/12/12 20:40:34;;;;;;;59.67;34.27;;;2.70;99.90;;;;;;9891641;30;20230;-77
2023/12/12 20:45:56;;;;;;;60.03;34.87;;;2.70;1.00;;;;;;9891789;30;20211;-78
2023/12/12 20:51:18;;;;;;;62.03;34.27;;;2.70;99.90;;;;;;9890458;30;20238;-77
2023/12/12 20:56:41;;;;;;;70.17;37.97;;;2.70;99.90;;;;;;9877847;30;20259;-77
2023/12/12 21:02:02;;;;;;;76.07;41.13;;;2.70;99.90;;;;;;9888774;30;20237;-78
2023/12/12 21:07:24;;;;;;;122.77;58.13;;;2.60;99.90;;;;;;9891237;30;20198;-80
2023/12/12 21:12:46;;;;;;;172.13;78.70;;;2.60;99.90;;;;;;9897172;30;20235;-77
2023/12/12 21:18:07;;;;;;;173.93;81.70;;;2.60;1.00;;;;;;9875811;30;20246;-77
2023/12/12 21:23:31;;;;;;;172.57;83.40;;;2.60;1.00;;;;;;9860741;30;20199;-78
2023/12/12 21:28:52;;;;;;;176.83;81.53;;;2.60;1.00;;;;;;9865895;30;20201;-78
2023/12/12 21:34:13;;;;;;;161.87;75.40;;;2.60;1.00;;;;;;9935353;29;20193;-78
2023/12/12 21:39:34;;;;;;;163.17;72.23;;;2.60;1.00;;;;;;9934735;29;20295;-77
2023/12/12 21:44:57;;;;;;;146.53;63.90;;;2.50;1.00;;;;;;9934134;30;20488;-78
2023/12/12 21:50:18;;;;;;;152.47;64.80;;;2.50;1.00;;;;;;9890967;29;20439;-78
2023/12/12 21:55:39;;;;;;;149.17;61.17;;;2.50;1.00;;;;;;9896798;30;20286;-78
2023/12/12 22:01:01;;;;;;;138.90;56.37;;;2.50;1.00;;;;;;9896261;30;20245;-78
2023/12/12 22:06:22;;;;;;;136.27;56.83;;;2.50;1.00;;;;;;9897122;30;20226;-79
2023/12/12 22:11:44;;;;;;;116.83;54.83;;;2.50;1.00;;;;;;9885373;30;20316;-78
2023/12/12 22:17:05;;;;;;;107.27;50.73;;;2.50;1.00;;;;;;9891093;30;20293;-78
2023/12/12 22:22:26;;;;;;;119.83;55.10;;;2.50;1.00;;;;;;9882993;30;20254;-78
2023/12/12 22:27:48;;;;;;;134.37;58.67;;;2.50;1.00;;;;;;9882675;30;20462;-78
2023/12/12 22:33:09;;;;;;;126.40;54.60;;;2.50;1.00;;;;;;9929732;30;20232;-79
2023/12/12 22:38:31;;;;;;;116.53;53.60;;;2.40;1.00;;;;;;9903359;29;20250;-78
2023/12/12 22:43:52;;;;;;;119.40;55.97;;;2.50;1.00;;;;;;9858097;30;20199;-78
2023/12/12 22:49:13;;;;;;;107.13;52.27;;;2.40;1.00;;;;;;9858594;30;20203;-77
2023/12/12 22:54:34;;;;;;;107.53;54.27;;;2.40;1.00;;;;;;9858545;30;20385;-78
2023/12/12 22:59:55;;;;;;;103.10;53.07;;;2.40;1.00;;;;;;9857364;30;20235;-78
2023/12/12 23:05:17;;;;;;;112.40;54.50;;;2.40;1.00;;;;;;9858018;30;20207;-78
2023/12/12 23:10:38;;;;;;;135.23;60.50;;;2.40;1.00;;;;;;9869625;30;20318;-78
2023/12/12 23:15:59;;;;;;;126.07;57.17;;;2.40;1.00;;;;;;9894633;30;20206;-78
2023/12/12 23:21:20;;;;;;;90.70;46.63;;;2.40;99.90;;;;;;9894284;30;20258;-78
2023/12/12 23:26:41;;;;;;;84.53;40.60;;;2.30;1.00;;;;;;9894330;30;20210;-78
2023/12/12 23:32:03;;;;;;;75.93;34.93;;;2.30;99.90;;;;;;9892317;30;20203;-77
2023/12/12 23:37:24;;;;;;;81.93;33.17;;;2.30;1.00;;;;;;9885954;30;20220;-77
2023/12/12 23:42:46;;;;;;;58.07;26.30;;;2.40;1.00;;;;;;9855763;30;20240;-78
2023/12/12 23:48:07;;;;;;;57.13;26.73;;;2.40;99.90;;;;;;9887612;30;20223;-78
2023/12/12 23:53:32;;;;;;;60.00;28.90;;;2.60;99.90;;;;;;9892327;30;20207;-78
2023/12/12 23:58:57;;;;;;;53.27;27.67;;;2.60;41.00;;;;;;9893071;30;20233;-77
